Time;durP1;ratioP1;P1;durP2;ratioP2;P2;SDS_P1;SDS_P2;PMS_P1;PMS_P2;Temp;Humidity;BMP_temperature;BMP_pressure;BME280_temperature;BME280_humidity;BME280_pressure;Samples;Min_cycle;Max_cycle;Signal;HPM_P1;HPM_P2
2023/05/24 00:01:15;;;;;;;3.05;2.35;;;;;;;;;;5139237;27;20201;-67
2023/05/24 00:03:45;;;;;;;2.65;2.42;;;;;;;;;;5139525;27;20252;-66
2023/05/24 00:06:13;;;;;;;2.70;2.40;;;;;;;;;;5139020;27;20198;-66
2023/05/24 00:08:40;;;;;;;3.00;2.33;;;;;;;;;;5139678;27;20289;-66
2023/05/24 00:11:07;;;;;;;2.78;2.30;;;;;;;;;;5139258;27;20202;-67
2023/05/24 00:13:35;;;;;;;2.75;2.20;;;;;;;;;;5139115;27;20206;-67
2023/05/24 00:16:02;;;;;;;2.95;2.30;;;;;;;;;;5139341;27;20632;-66
2023/05/24 00:18:31;;;;;;;2.75;2.10;;;;;;;;;;5139063;27;20218;-66
2023/05/24 00:20:58;;;;;;;2.42;2.20;;;;;;;;;;5139354;27;20203;-66
2023/05/24 00:23:26;;;;;;;3.53;2.45;;;;;;;;;;5139357;27;20227;-66
2023/05/24 00:25:53;;;;;;;2.28;2.00;;;;;;;;;;5139200;27;20198;-67
2023/05/24 00:28:21;;;;;;;2.85;2.30;;;;;;;;;;5137502;28;20237;-66
2023/05/24 00:30:49;;;;;;;2.47;2.28;;;;;;;;;;5138032;28;20241;-66
2023/05/24 00:33:17;;;;;;;2.60;2.20;;;;;;;;;;5139277;28;20573;-66
2023/05/24 00:35:45;;;;;;;3.03;2.60;;;;;;;;;;5139061;28;20226;-66
2023/05/24 00:38:13;;;;;;;3.00;2.50;;;;;;;;;;5139177;28;20210;-66
2023/05/24 00:40:40;;;;;;;2.47;2.25;;;;;;;;;;5139558;28;20475;-66
2023/05/24 00:43:08;;;;;;;4.25;2.38;;;;;;;;;;5139182;28;20272;-66
2023/05/24 00:45:35;;;;;;;2.55;2.30;;;;;;;;;;5139066;28;20203;-65
2023/05/24 00:48:03;;;;;;;3.03;2.63;;;;;;;;;;5138676;28;20198;-67
2023/05/24 00:50:30;;;;;;;3.35;2.55;;;;;;;;;;5138792;28;20491;-67
2023/05/24 00:53:01;;;;;;;2.40;2.20;;;;;;;;;;5139155;28;20213;-67
2023/05/24 00:55:29;;;;;;;2.53;2.28;;;;;;;;;;5138607;28;20202;-66
2023/05/24 00:57:57;;;;;;;2.92;2.40;;;;;;;;;;5138910;28;20217;-65
2023/05/24 01:00:25;;;;;;;2.67;2.33;;;;;;;;;;5138683;27;20210;-66
2023/05/24 01:02:53;;;;;;;3.95;2.50;;;;;;;;;;5141918;27;20210;-66
2023/05/24 01:05:22;;;;;;;2.95;2.40;;;;;;;;;;5143175;27;20202;-66
2023/05/24 01:07:55;;;;;;;2.50;2.28;;;;;;;;;;5143098;27;20202;-66
2023/05/24 01:10:29;;;;;;;2.70;2.35;;;;;;;;;;5142806;27;20202;-66
2023/05/24 01:13:00;;;;;;;2.30;2.10;;;;;;;;;;5142487;27;20245;-66
2023/05/24 01:15:32;;;;;;;2.47;2.00;;;;;;;;;;5142671;27;20202;-66
2023/05/24 01:18:04;;;;;;;3.08;2.05;;;;;;;;;;5142856;27;20202;-66
2023/05/24 01:20:33;;;;;;;2.25;2.05;;;;;;;;;;5142674;27;20203;-66
2023/05/24 01:23:19;;;;;;;3.20;2.30;;;;;;;;;;5142749;27;20566;-66
2023/05/24 01:25:50;;;;;;;3.22;2.25;;;;;;;;;;5142465;27;20627;-66
2023/05/24 01:28:19;;;;;;;2.90;2.22;;;;;;;;;;5142119;27;20328;-66
2023/05/24 01:30:46;;;;;;;3.03;2.20;;;;;;;;;;5142787;27;20202;-66
2023/05/24 01:33:14;;;;;;;3.80;2.40;;;;;;;;;;5142172;27;20202;-67
2023/05/24 01:35:41;;;;;;;2.35;2.05;;;;;;;;;;5142133;27;20221;-66
2023/05/24 01:38:09;;;;;;;3.55;2.58;;;;;;;;;;5142029;27;20707;-66
2023/05/24 01:40:37;;;;;;;2.38;1.98;;;;;;;;;;5142173;27;20229;-66
2023/05/24 01:43:08;;;;;;;2.78;2.28;;;;;;;;;;5141924;27;20209;-66
2023/05/24 01:45:40;;;;;;;2.40;2.20;;;;;;;;;;5142654;27;20221;-66
2023/05/24 01:48:17;;;;;;;2.28;1.90;;;;;;;;;;5142296;27;20203;-66
2023/05/24 01:50:47;;;;;;;3.00;2.10;;;;;;;;;;5142055;27;20212;-67
2023/05/24 01:53:17;;;;;;;2.25;2.00;;;;;;;;;;5141920;27;20210;-66
2023/05/24 01:55:45;;;;;;;3.75;2.50;;;;;;;;;;5142048;27;20213;-66
2023/05/24 01:58:13;;;;;;;3.55;2.30;;;;;;;;;;5142060;27;20202;-67
2023/05/24 02:00:42;;;;;;;3.33;2.30;;;;;;;;;;5141683;27;20210;-66
2023/05/24 02:03:10;;;;;;;3.50;2.10;;;;;;;;;;5141143;27;20202;-66
2023/05/24 02:05:39;;;;;;;2.22;2.00;;;;;;;;;;5141692;27;20203;-66
2023/05/24 02:08:07;;;;;;;2.58;2.03;;;;;;;;;;5141708;27;20202;-65
2023/05/24 02:10:37;;;;;;;2.72;2.20;;;;;;;;;;5141501;27;20655;-66
2023/05/24 02:13:04;;;;;;;3.35;2.17;;;;;;;;;;5141082;27;20202;-66
2023/05/24 02:15:32;;;;;;;2.20;1.90;;;;;;;;;;5141793;27;20615;-66
2023/05/24 02:18:01;;;;;;;2.33;1.88;;;;;;;;;;5141917;27;20648;-66
2023/05/24 02:20:29;;;;;;;2.13;1.90;;;;;;;;;;5141345;27;20233;-66
2023/05/24 02:22:57;;;;;;;2.88;2.08;;;;;;;;;;5141916;27;20457;-66
2023/05/24 02:25:24;;;;;;;2.22;2.05;;;;;;;;;;5141979;27;20264;-66
2023/05/24 02:27:52;;;;;;;2.45;1.95;;;;;;;;;;5141215;27;20240;-66
2023/05/24 02:30:20;;;;;;;2.80;2.03;;;;;;;;;;5141471;27;20268;-66
2023/05/24 02:32:47;;;;;;;2.30;1.90;;;;;;;;;;5141084;27;20210;-66
2023/05/24 02:35:16;;;;;;;2.13;1.92;;;;;;;;;;5140937;27;20585;-66
2023/05/24 02:37:43;;;;;;;2.90;2.13;;;;;;;;;;5140962;27;20305;-66
2023/05/24 02:40:11;;;;;;;2.03;1.80;;;;;;;;;;5141652;27;20213;-66
2023/05/24 02:42:38;;;;;;;2.25;2.00;;;;;;;;;;5141106;27;20206;-66
2023/05/24 02:45:06;;;;;;;2.80;2.00;;;;;;;;;;5140800;27;20616;-66
2023/05/24 02:47:34;;;;;;;2.63;1.90;;;;;;;;;;5140670;27;20653;-66
2023/05/24 02:50:01;;;;;;;2.40;1.90;;;;;;;;;;5140825;27;20600;-66
2023/05/24 02:52:30;;;;;;;2.35;1.80;;;;;;;;;;5140735;27;20582;-66
2023/05/24 02:54:57;;;;;;;2.05;1.83;;;;;;;;;;5141357;27;20209;-66
2023/05/24 02:57:25;;;;;;;2.80;1.92;;;;;;;;;;5140765;27;20233;-67
2023/05/24 02:59:53;;;;;;;2.40;1.98;;;;;;;;;;5122187;27;20256;-66
2023/05/24 03:02:20;;;;;;;3.67;1.90;;;;;;;;;;5140572;27;20202;-66
2023/05/24 03:04:48;;;;;;;2.95;2.15;;;;;;;;;;5140461;27;20209;-66
2023/05/24 03:07:15;;;;;;;2.28;1.92;;;;;;;;;;5140674;27;20209;-66
2023/05/24 03:09:44;;;;;;;2.60;1.90;;;;;;;;;;5140454;27;20213;-66
2023/05/24 03:12:12;;;;;;;4.15;2.03;;;;;;;;;;5139660;27;20206;-66
2023/05/24 03:14:40;;;;;;;3.10;1.80;;;;;;;;;;5140178;27;20660;-66
2023/05/24 03:17:07;;;;;;;3.17;1.80;;;;;;;;;;5140424;27;20214;-66
2023/05/24 03:19:34;;;;;;;2.33;1.70;;;;;;;;;;5140209;27;20212;-66
2023/05/24 03:22:02;;;;;;;2.40;1.95;;;;;;;;;;5139674;27;20203;-66
2023/05/24 03:24:30;;;;;;;3.63;1.90;;;;;;;;;;5139216;27;20230;-66
2023/05/24 03:26:59;;;;;;;2.95;1.92;;;;;;;;;;5139640;27;20199;-66
2023/05/24 03:29:27;;;;;;;2.65;1.60;;;;;;;;;;5139868;27;20230;-66
2023/05/24 03:31:54;;;;;;;1.77;1.50;;;;;;;;;;5139966;27;20490;-67
2023/05/24 03:34:21;;;;;;;2.92;1.77;;;;;;;;;;5139242;27;20202;-66
2023/05/24 03:36:49;;;;;;;2.83;1.95;;;;;;;;;;5140124;27;20241;-65
2023/05/24 03:39:17;;;;;;;2.55;1.90;;;;;;;;;;5139388;27;20225;-66
2023/05/24 03:41:44;;;;;;;2.65;1.85;;;;;;;;;;5139871;27;20247;-65
2023/05/24 03:44:13;;;;;;;2.72;1.90;;;;;;;;;;5138957;27;20202;-66
2023/05/24 03:46:40;;;;;;;2.95;1.60;;;;;;;;;;5139394;27;20281;-66
2023/05/24 03:49:08;;;;;;;1.83;1.70;;;;;;;;;;5139072;27;20206;-66
2023/05/24 03:51:36;;;;;;;3.47;1.88;;;;;;;;;;5139288;27;20208;-66
2023/05/24 03:54:03;;;;;;;2.15;1.85;;;;;;;;;;5139257;27;20262;-66
2023/05/24 03:56:30;;;;;;;2.03;1.60;;;;;;;;;;5139512;27;20202;-67
2023/05/24 03:58:59;;;;;;;3.15;1.60;;;;;;;;;;5139026;27;20255;-67
2023/05/24 04:01:30;;;;;;;2.88;1.98;;;;;;;;;;5139057;27;20213;-66
2023/05/24 04:03:58;;;;;;;2.20;2.00;;;;;;;;;;5139495;27;20203;-66
2023/05/24 04:06:27;;;;;;;2.28;1.75;;;;;;;;;;5139004;27;20525;-65
2023/05/24 04:08:56;;;;;;;2.03;1.58;;;;;;;;;;5139267;27;20206;-66
2023/05/24 04:11:26;;;;;;;2.75;1.67;;;;;;;;;;5139357;27;20535;-66
2023/05/24 04:13:55;;;;;;;2.85;1.80;;;;;;;;;;5139585;27;20497;-66
2023/05/24 04:16:24;;;;;;;3.25;1.83;;;;;;;;;;5138678;27;20318;-66
2023/05/24 04:18:54;;;;;;;2.75;1.95;;;;;;;;;;5138135;27;20198;-66
2023/05/24 04:21:21;;;;;;;2.42;1.52;;;;;;;;;;5138168;27;20206;-66
2023/05/24 04:23:49;;;;;;;2.10;1.65;;;;;;;;;;5138670;27;20202;-67
2023/05/24 04:26:16;;;;;;;2.72;1.63;;;;;;;;;;5138090;27;20400;-66
2023/05/24 04:28:44;;;;;;;2.55;1.80;;;;;;;;;;5138149;27;20230;-66
2023/05/24 04:31:11;;;;;;;1.92;1.50;;;;;;;;;;5138227;28;20221;-66
2023/05/24 04:33:39;;;;;;;2.20;1.63;;;;;;;;;;5138099;28;20229;-66
2023/05/24 04:36:10;;;;;;;2.20;1.50;;;;;;;;;;5139539;27;20214;-66
2023/05/24 04:38:38;;;;;;;3.63;1.85;;;;;;;;;;5142018;27;20229;-66
2023/05/24 04:41:05;;;;;;;3.25;1.67;;;;;;;;;;5141427;27;20309;-66
2023/05/24 04:43:33;;;;;;;2.40;1.65;;;;;;;;;;5142333;27;20617;-66
2023/05/24 04:46:01;;;;;;;2.47;1.60;;;;;;;;;;5142232;27;20202;-66
2023/05/24 04:48:29;;;;;;;2.72;1.80;;;;;;;;;;5142092;27;20209;-66
2023/05/24 04:50:57;;;;;;;3.30;1.73;;;;;;;;;;5141996;27;20205;-66
2023/05/24 04:53:26;;;;;;;3.35;1.67;;;;;;;;;;5141801;27;20194;-67
2023/05/24 04:55:53;;;;;;;2.63;1.80;;;;;;;;;;5140736;27;20201;-66
2023/05/24 04:58:21;;;;;;;3.22;1.60;;;;;;;;;;5140728;27;20233;-66
2023/05/24 05:00:48;;;;;;;2.38;1.50;;;;;;;;;;5140351;27;20637;-66
2023/05/24 05:03:16;;;;;;;3.47;1.83;;;;;;;;;;5140821;27;20319;-66
2023/05/24 05:05:44;;;;;;;2.88;1.70;;;;;;;;;;5140365;27;20209;-65
2023/05/24 05:08:11;;;;;;;3.45;1.70;;;;;;;;;;5139904;27;20190;-66
2023/05/24 05:10:40;;;;;;;2.50;1.77;;;;;;;;;;5140261;27;20206;-66
2023/05/24 05:13:08;;;;;;;3.10;1.50;;;;;;;;;;5139757;27;20206;-66
2023/05/24 05:15:35;;;;;;;2.22;1.50;;;;;;;;;;5140397;27;20601;-66
2023/05/24 05:18:02;;;;;;;2.22;1.83;;;;;;;;;;5139850;27;20225;-66
2023/05/24 05:20:29;;;;;;;3.40;1.75;;;;;;;;;;5140671;27;20225;-66
2023/05/24 05:22:57;;;;;;;2.10;1.42;;;;;;;;;;5139992;27;20210;-66
2023/05/24 05:25:24;;;;;;;1.80;1.30;;;;;;;;;;5140187;27;20212;-66
2023/05/24 05:27:53;;;;;;;2.83;1.65;;;;;;;;;;5139542;27;20767;-66
2023/05/24 05:30:20;;;;;;;2.55;1.50;;;;;;;;;;5138997;27;20213;-66
2023/05/24 05:32:48;;;;;;;2.90;1.50;;;;;;;;;;5139369;27;20202;-66
2023/05/24 05:35:15;;;;;;;2.67;1.58;;;;;;;;;;5139545;27;20518;-66
2023/05/24 05:37:42;;;;;;;3.05;1.50;;;;;;;;;;5137851;27;20320;-66
2023/05/24 05:40:10;;;;;;;2.38;1.70;;;;;;;;;;5138244;27;20198;-66
2023/05/24 05:42:38;;;;;;;3.17;1.73;;;;;;;;;;5137819;27;20213;-66
2023/05/24 05:45:07;;;;;;;2.13;1.60;;;;;;;;;;5138310;27;20198;-66
2023/05/24 05:47:35;;;;;;;2.95;1.90;;;;;;;;;;5136941;27;20198;-66
2023/05/24 05:50:02;;;;;;;2.95;1.60;;;;;;;;;;5138468;27;20202;-66
2023/05/24 05:52:30;;;;;;;3.17;1.83;;;;;;;;;;5138659;27;20194;-66
2023/05/24 05:54:58;;;;;;;2.50;1.75;;;;;;;;;;5138816;27;20608;-66
2023/05/24 05:57:25;;;;;;;2.58;1.67;;;;;;;;;;5138256;27;20225;-66
2023/05/24 05:59:52;;;;;;;3.42;1.60;;;;;;;;;;5138711;27;20194;-66
2023/05/24 06:02:21;;;;;;;3.15;1.73;;;;;;;;;;5138338;27;20199;-66
2023/05/24 06:04:50;;;;;;;2.38;1.30;;;;;;;;;;5138338;27;20210;-66
2023/05/24 06:07:17;;;;;;;3.55;1.73;;;;;;;;;;5138721;27;20202;-66
2023/05/24 06:09:44;;;;;;;3.42;1.70;;;;;;;;;;5139347;27;20629;-66
2023/05/24 06:12:12;;;;;;;2.72;1.73;;;;;;;;;;5138649;27;20202;-66
2023/05/24 06:14:39;;;;;;;3.08;1.73;;;;;;;;;;5138974;27;20213;-66
2023/05/24 06:17:07;;;;;;;3.13;1.60;;;;;;;;;;5138652;27;20202;-66
2023/05/24 06:19:37;;;;;;;3.72;1.95;;;;;;;;;;5138662;27;20262;-66
2023/05/24 06:22:05;;;;;;;2.22;1.67;;;;;;;;;;5139941;27;20253;-66
2023/05/24 06:24:33;;;;;;;4.07;1.83;;;;;;;;;;5139020;27;20694;-66
2023/05/24 06:27:01;;;;;;;4.63;1.83;;;;;;;;;;5139132;27;20230;-66
2023/05/24 06:29:28;;;;;;;2.90;1.60;;;;;;;;;;5138803;27;20248;-65
2023/05/24 06:31:56;;;;;;;3.30;1.85;;;;;;;;;;5138794;27;20205;-67
2023/05/24 06:34:23;;;;;;;3.90;1.85;;;;;;;;;;5139534;27;20288;-66
2023/05/24 06:36:52;;;;;;;3.03;1.90;;;;;;;;;;5139742;27;20206;-66
2023/05/24 06:39:19;;;;;;;3.85;1.77;;;;;;;;;;5138957;27;20226;-65
2023/05/24 06:41:49;;;;;;;4.15;2.10;;;;;;;;;;5138526;27;20327;-66
2023/05/24 06:44:17;;;;;;;2.53;1.50;;;;;;;;;;5138696;27;20482;-66
2023/05/24 06:46:45;;;;;;;3.78;1.88;;;;;;;;;;5139185;27;20574;-66
2023/05/24 06:49:13;;;;;;;3.10;1.83;;;;;;;;;;5138979;27;20198;-66
2023/05/24 06:51:40;;;;;;;3.80;1.88;;;;;;;;;;5138603;27;20209;-67
2023/05/24 06:54:09;;;;;;;3.65;2.05;;;;;;;;;;5139311;27;20217;-67
2023/05/24 06:56:36;;;;;;;233.57;12.30;;;;;;;;;;5139064;27;20203;-67
2023/05/24 06:59:04;;;;;;;6.07;1.92;;;;;;;;;;5139107;27;20576;-67
2023/05/24 07:01:31;;;;;;;6.35;2.20;;;;;;;;;;5138136;27;20480;-67
2023/05/24 07:03:59;;;;;;;6.72;2.42;;;;;;;;;;5138447;27;20217;-66
2023/05/24 07:06:26;;;;;;;4.78;2.10;;;;;;;;;;5138044;27;20194;-67
2023/05/24 07:08:54;;;;;;;5.07;2.25;;;;;;;;;;5138745;27;20201;-66
2023/05/24 07:11:22;;;;;;;4.22;1.77;;;;;;;;;;5138060;27;20198;-67
2023/05/24 07:13:50;;;;;;;4.25;2.03;;;;;;;;;;5137696;27;20198;-67
2023/05/24 07:16:17;;;;;;;4.70;2.10;;;;;;;;;;5138398;27;20209;-67
2023/05/24 07:18:45;;;;;;;5.95;2.20;;;;;;;;;;5138039;27;20229;-67
2023/05/24 07:21:12;;;;;;;4.28;2.00;;;;;;;;;;5138341;27;20252;-66
2023/05/24 07:23:39;;;;;;;4.72;2.20;;;;;;;;;;5138182;27;20209;-67
2023/05/24 07:26:07;;;;;;;4.70;1.90;;;;;;;;;;5138080;27;20198;-66
2023/05/24 07:28:39;;;;;;;3.35;1.98;;;;;;;;;;5137320;27;20249;-68
2023/05/24 07:31:06;;;;;;;3.25;2.10;;;;;;;;;;5137818;27;20213;-67
2023/05/24 07:33:34;;;;;;;3.97;2.08;;;;;;;;;;5137948;27;20639;-66
2023/05/24 07:36:01;;;;;;;4.90;2.28;;;;;;;;;;5136905;27;20500;-66
2023/05/24 07:38:29;;;;;;;6.25;2.35;;;;;;;;;;5137358;27;20648;-67
2023/05/24 07:40:59;;;;;;;3.50;1.90;;;;;;;;;;5138106;27;20202;-67
2023/05/24 07:43:27;;;;;;;5.13;2.25;;;;;;;;;;5137387;27;20503;-66
2023/05/24 07:45:55;;;;;;;4.78;2.13;;;;;;;;;;5137339;27;20239;-67
2023/05/24 07:48:23;;;;;;;4.03;1.83;;;;;;;;;;5137406;27;20896;-68
2023/05/24 07:50:51;;;;;;;3.70;2.22;;;;;;;;;;5136929;27;20217;-68
2023/05/24 07:53:19;;;;;;;8.40;2.13;;;;;;;;;;5136911;27;20233;-68
2023/05/24 07:55:47;;;;;;;7.25;2.30;;;;;;;;;;5137024;27;20202;-68
2023/05/24 07:58:14;;;;;;;6.85;2.30;;;;;;;;;;5136318;27;20222;-68
2023/05/24 08:00:42;;;;;;;6.82;2.40;;;;;;;;;;5136794;27;20596;-68
2023/05/24 08:03:13;;;;;;;6.30;2.75;;;;;;;;;;5137460;27;20210;-68
2023/05/24 08:05:40;;;;;;;7.40;2.08;;;;;;;;;;5136646;27;20294;-68
2023/05/24 08:08:08;;;;;;;5.00;2.20;;;;;;;;;;5137298;27;20198;-68
2023/05/24 08:10:35;;;;;;;6.95;2.60;;;;;;;;;;5136591;27;20253;-68
2023/05/24 08:13:04;;;;;;;5.13;1.98;;;;;;;;;;5137325;27;20202;-67
2023/05/24 08:15:31;;;;;;;7.13;2.30;;;;;;;;;;5137281;27;20581;-68
2023/05/24 08:17:59;;;;;;;5.93;2.60;;;;;;;;;;5136841;27;20224;-68
2023/05/24 08:20:28;;;;;;;4.13;2.15;;;;;;;;;;5136726;27;20263;-68
2023/05/24 08:22:55;;;;;;;4.03;2.15;;;;;;;;;;5137140;27;20202;-68
2023/05/24 08:25:23;;;;;;;5.63;2.50;;;;;;;;;;5137349;27;20202;-67
2023/05/24 08:27:50;;;;;;;6.00;2.35;;;;;;;;;;5136642;27;20236;-67
2023/05/24 08:30:18;;;;;;;4.70;2.10;;;;;;;;;;5136239;27;20669;-67
2023/05/24 08:32:46;;;;;;;5.28;2.38;;;;;;;;;;5136562;28;20534;-68
2023/05/24 08:35:13;;;;;;;5.68;2.47;;;;;;;;;;5137535;28;20202;-67
2023/05/24 08:37:42;;;;;;;4.68;2.30;;;;;;;;;;5136738;28;20236;-67
2023/05/24 08:40:10;;;;;;;3.88;2.05;;;;;;;;;;5136293;28;20641;-67
2023/05/24 08:42:38;;;;;;;4.22;2.30;;;;;;;;;;5136560;28;20209;-67
2023/05/24 08:45:09;;;;;;;5.15;2.30;;;;;;;;;;5136275;28;20203;-68
2023/05/24 08:47:37;;;;;;;6.25;2.70;;;;;;;;;;5136324;28;20209;-67
2023/05/24 08:50:07;;;;;;;5.35;2.75;;;;;;;;;;5136759;28;20225;-68
2023/05/24 08:52:34;;;;;;;3.90;2.33;;;;;;;;;;5136758;28;20206;-68
2023/05/24 08:55:04;;;;;;;3.38;2.17;;;;;;;;;;5136798;28;20218;-67
2023/05/24 08:57:33;;;;;;;3.83;2.20;;;;;;;;;;5136480;28;20198;-68
2023/05/24 09:00:01;;;;;;;4.35;2.22;;;;;;;;;;5136521;28;20268;-67
2023/05/24 09:02:28;;;;;;;5.20;2.35;;;;;;;;;;5136450;28;20297;-67
2023/05/24 09:04:56;;;;;;;4.18;2.08;;;;;;;;;;5136148;28;20198;-68
2023/05/24 09:07:24;;;;;;;3.33;2.10;;;;;;;;;;5135795;28;20206;-68
2023/05/24 09:09:54;;;;;;;3.80;2.25;;;;;;;;;;5136790;28;20229;-68
2023/05/24 09:12:23;;;;;;;4.28;2.20;;;;;;;;;;5135315;28;20231;-68
2023/05/24 09:14:51;;;;;;;5.13;2.38;;;;;;;;;;5135917;28;20209;-67
2023/05/24 09:17:18;;;;;;;3.53;2.20;;;;;;;;;;5136550;28;20202;-68
2023/05/24 09:19:46;;;;;;;3.03;1.90;;;;;;;;;;5136085;28;20226;-67
2023/05/24 09:22:14;;;;;;;3.30;1.90;;;;;;;;;;5136469;27;20301;-67
2023/05/24 09:24:42;;;;;;;3.70;2.38;;;;;;;;;;5140246;27;20619;-67
2023/05/24 09:27:09;;;;;;;3.38;2.00;;;;;;;;;;5139653;27;20208;-68
2023/05/24 09:29:39;;;;;;;5.63;2.20;;;;;;;;;;5119081;28;20563;-68
2023/05/24 09:32:08;;;;;;;3.45;2.10;;;;;;;;;;5118828;28;20260;-67
2023/05/24 09:34:40;;;;;;;4.35;2.10;;;;;;;;;;5118173;28;20207;-68
2023/05/24 09:37:12;;;;;;;4.47;2.50;;;;;;;;;;5118664;28;20276;-67
2023/05/24 09:39:40;;;;;;;3.88;2.30;;;;;;;;;;5118770;28;20241;-68
2023/05/24 09:42:08;;;;;;;4.38;2.25;;;;;;;;;;5117421;28;20735;-67
2023/05/24 09:44:35;;;;;;;3.40;1.98;;;;;;;;;;5117581;28;20203;-68
2023/05/24 09:47:04;;;;;;;3.45;2.35;;;;;;;;;;5117725;28;20781;-68
2023/05/24 09:49:32;;;;;;;5.03;2.63;;;;;;;;;;5118100;28;20203;-67
2023/05/24 09:51:59;;;;;;;4.40;2.50;;;;;;;;;;5118160;28;20203;-68
2023/05/24 09:54:26;;;;;;;4.82;2.58;;;;;;;;;;5118509;28;20602;-68
2023/05/24 09:56:54;;;;;;;4.10;2.40;;;;;;;;;;5118616;28;20214;-68
2023/05/24 09:59:21;;;;;;;3.03;2.20;;;;;;;;;;5118315;28;20501;-67
2023/05/24 10:01:52;;;;;;;3.90;2.50;;;;;;;;;;5118912;28;20546;-67
2023/05/24 10:04:33;;;;;;;4.80;2.20;;;;;;;;;;5118625;28;20209;-68
2023/05/24 10:07:01;;;;;;;4.20;2.50;;;;;;;;;;5118587;28;20226;-68
2023/05/24 10:09:32;;;;;;;4.05;2.38;;;;;;;;;;5118643;28;20222;-67
2023/05/24 10:12:03;;;;;;;5.43;2.33;;;;;;;;;;5118059;28;20268;-68
2023/05/24 10:14:32;;;;;;;5.07;2.70;;;;;;;;;;5118202;28;20791;-68
2023/05/24 10:17:00;;;;;;;4.95;2.38;;;;;;;;;;5117735;28;20203;-68
2023/05/24 10:19:28;;;;;;;4.05;2.45;;;;;;;;;;5117851;28;20219;-67
2023/05/24 10:21:57;;;;;;;3.83;2.35;;;;;;;;;;5117252;28;20214;-67
2023/05/24 10:24:27;;;;;;;3.60;2.40;;;;;;;;;;5117269;28;20207;-68
2023/05/24 10:26:55;;;;;;;3.55;2.10;;;;;;;;;;5117133;28;20211;-68
2023/05/24 10:29:28;;;;;;;2.60;1.98;;;;;;;;;;5135383;27;20222;-67
2023/05/24 10:31:56;;;;;;;3.35;2.20;;;;;;;;;;5137867;27;20202;-67
2023/05/24 10:34:23;;;;;;;2.90;2.15;;;;;;;;;;5136663;27;20199;-67
2023/05/24 10:36:52;;;;;;;2.50;1.70;;;;;;;;;;5137749;27;20210;-67
2023/05/24 10:39:22;;;;;;;4.07;2.30;;;;;;;;;;5137651;27;20221;-67
2023/05/24 10:41:49;;;;;;;3.50;2.20;;;;;;;;;;5137752;27;20232;-68
2023/05/24 10:44:19;;;;;;;3.50;2.53;;;;;;;;;;5137799;27;20202;-67
2023/05/24 10:47:09;;;;;;;2.92;1.98;;;;;;;;;;5137272;27;20221;-67
2023/05/24 10:49:37;;;;;;;3.45;2.20;;;;;;;;;;5136913;27;20206;-67
2023/05/24 10:52:09;;;;;;;4.30;2.10;;;;;;;;;;5137429;27;20228;-68
2023/05/24 10:54:37;;;;;;;3.60;2.28;;;;;;;;;;5137441;27;20198;-68
2023/05/24 10:57:05;;;;;;;4.05;2.10;;;;;;;;;;5137328;27;20206;-67
2023/05/24 10:59:38;;;;;;;2.65;1.88;;;;;;;;;;5136769;27;20739;-68
2023/05/24 11:02:08;;;;;;;3.13;2.17;;;;;;;;;;5137131;27;20210;-67
2023/05/24 11:04:38;;;;;;;2.83;2.03;;;;;;;;;;5137196;27;20217;-68
2023/05/24 11:07:08;;;;;;;3.00;2.15;;;;;;;;;;5137962;27;20206;-67
2023/05/24 11:09:38;;;;;;;3.83;2.20;;;;;;;;;;5137631;27;20262;-68
2023/05/24 11:12:08;;;;;;;3.38;2.10;;;;;;;;;;5137308;27;20210;-68
2023/05/24 11:14:38;;;;;;;3.00;2.20;;;;;;;;;;5137023;27;20601;-68
2023/05/24 11:17:06;;;;;;;2.47;2.00;;;;;;;;;;5137322;27;20229;-67
2023/05/24 11:19:35;;;;;;;3.42;2.20;;;;;;;;;;5136501;27;20230;-67
2023/05/24 11:22:03;;;;;;;2.47;1.95;;;;;;;;;;5137377;27;20202;-67
2023/05/24 11:24:30;;;;;;;2.47;1.95;;;;;;;;;;5136772;27;20674;-67
2023/05/24 11:27:00;;;;;;;3.00;2.00;;;;;;;;;;5136406;27;20213;-68
2023/05/24 11:29:28;;;;;;;3.05;2.05;;;;;;;;;;5136975;27;20225;-68
2023/05/24 11:32:00;;;;;;;2.72;1.90;;;;;;;;;;5136741;27;20589;-68
2023/05/24 11:34:27;;;;;;;2.38;1.65;;;;;;;;;;5136118;27;20210;-68
2023/05/24 11:36:55;;;;;;;3.03;2.03;;;;;;;;;;5136713;27;20202;-67
2023/05/24 11:39:24;;;;;;;2.45;1.83;;;;;;;;;;5136253;27;20261;-67
2023/05/24 11:41:55;;;;;;;2.72;2.13;;;;;;;;;;5136368;27;20707;-68
2023/05/24 11:44:24;;;;;;;2.60;1.80;;;;;;;;;;5136518;27;20303;-68
2023/05/24 11:46:57;;;;;;;1.85;1.73;;;;;;;;;;5136086;27;20210;-68
2023/05/24 11:49:25;;;;;;;2.47;1.98;;;;;;;;;;5136097;27;20194;-68
2023/05/24 11:51:54;;;;;;;2.45;1.77;;;;;;;;;;5136299;27;20210;-67
2023/05/24 11:54:21;;;;;;;2.55;1.92;;;;;;;;;;5135850;27;20202;-68
2023/05/24 11:56:48;;;;;;;3.03;2.03;;;;;;;;;;5136283;27;20555;-67
2023/05/24 11:59:17;;;;;;;2.30;1.90;;;;;;;;;;5136255;27;20948;-67
2023/05/24 12:01:45;;;;;;;2.40;1.80;;;;;;;;;;5136043;27;20289;-67
2023/05/24 12:04:13;;;;;;;2.40;1.90;;;;;;;;;;5136430;27;20198;-67
2023/05/24 12:06:40;;;;;;;3.33;1.65;;;;;;;;;;5136110;27;20717;-67
2023/05/24 12:09:09;;;;;;;2.20;1.90;;;;;;;;;;5136540;27;20514;-68
2023/05/24 12:11:39;;;;;;;2.28;1.67;;;;;;;;;;5135853;27;20229;-68
2023/05/24 12:14:07;;;;;;;2.45;2.10;;;;;;;;;;5136192;27;20198;-67
2023/05/24 12:16:36;;;;;;;2.58;1.65;;;;;;;;;;5136440;27;20271;-67
2023/05/24 12:19:05;;;;;;;2.38;1.80;;;;;;;;;;5135752;27;20590;-69
2023/05/24 12:21:33;;;;;;;2.45;1.88;;;;;;;;;;5135726;27;20201;-68
2023/05/24 12:24:11;;;;;;;2.05;1.85;;;;;;;;;;5136104;27;20310;-68
2023/05/24 12:26:43;;;;;;;2.22;1.77;;;;;;;;;;5135700;27;20197;-67
2023/05/24 12:29:11;;;;;;;2.22;2.00;;;;;;;;;;5135389;27;20488;-67
2023/05/24 12:31:40;;;;;;;2.03;1.50;;;;;;;;;;5135015;27;20633;-68
2023/05/24 12:34:08;;;;;;;2.63;1.77;;;;;;;;;;5135048;27;20202;-67
2023/05/24 12:36:39;;;;;;;1.90;1.52;;;;;;;;;;5134092;28;20197;-68
2023/05/24 12:39:30;;;;;;;1.98;1.65;;;;;;;;;;5134720;28;20194;-68
2023/05/24 12:41:58;;;;;;;1.85;1.42;;;;;;;;;;5129111;28;20209;-67
2023/05/24 12:44:25;;;;;;;2.17;1.70;;;;;;;;;;5135843;28;20199;-68
2023/05/24 12:46:53;;;;;;;2.72;1.73;;;;;;;;;;5135281;28;20206;-68
2023/05/24 12:49:22;;;;;;;2.58;1.77;;;;;;;;;;5135183;28;20744;-67
2023/05/24 12:51:49;;;;;;;2.45;1.83;;;;;;;;;;5134424;28;20214;-67
2023/05/24 12:54:19;;;;;;;2.42;1.80;;;;;;;;;;5134887;28;20194;-68
2023/05/24 12:56:46;;;;;;;2.50;2.10;;;;;;;;;;5135996;27;20202;-68
2023/05/24 12:59:13;;;;;;;3.88;2.10;;;;;;;;;;5139770;27;20259;-68
2023/05/24 13:01:41;;;;;;;2.70;2.10;;;;;;;;;;5138849;27;20198;-67
2023/05/24 13:04:09;;;;;;;2.20;1.70;;;;;;;;;;5137887;27;20212;-67
2023/05/24 13:06:38;;;;;;;3.83;2.40;;;;;;;;;;5139066;27;20213;-67
2023/05/24 13:09:06;;;;;;;2.20;1.83;;;;;;;;;;5138486;27;20216;-68
2023/05/24 13:11:34;;;;;;;2.63;2.20;;;;;;;;;;5138871;27;20306;-68
2023/05/24 13:14:01;;;;;;;2.72;2.15;;;;;;;;;;5138884;27;20230;-68
2023/05/24 13:16:28;;;;;;;3.95;2.10;;;;;;;;;;5138506;27;20202;-68
2023/05/24 13:18:56;;;;;;;2.80;2.10;;;;;;;;;;5139398;27;20198;-67
2023/05/24 13:21:24;;;;;;;4.25;2.30;;;;;;;;;;5139510;27;20236;-68
2023/05/24 13:23:52;;;;;;;3.67;1.98;;;;;;;;;;5138773;27;20199;-68
2023/05/24 13:26:20;;;;;;;2.65;1.95;;;;;;;;;;5138824;27;20216;-68
2023/05/24 13:28:48;;;;;;;3.97;2.10;;;;;;;;;;5138398;27;20640;-68
2023/05/24 13:31:15;;;;;;;2.85;1.98;;;;;;;;;;5138527;27;20194;-67
2023/05/24 13:33:43;;;;;;;2.92;1.90;;;;;;;;;;5138453;27;20230;-66
2023/05/24 13:36:11;;;;;;;3.58;1.80;;;;;;;;;;5139380;27;20205;-68
2023/05/24 13:38:38;;;;;;;3.45;2.00;;;;;;;;;;5139159;27;20233;-68
2023/05/24 13:41:07;;;;;;;3.30;2.17;;;;;;;;;;5138050;27;20621;-67
2023/05/24 13:43:34;;;;;;;2.88;2.17;;;;;;;;;;5138757;27;20308;-68
2023/05/24 13:46:01;;;;;;;2.95;2.13;;;;;;;;;;5138470;27;20451;-68
2023/05/24 13:48:29;;;;;;;2.22;1.98;;;;;;;;;;5139226;27;20203;-67
2023/05/24 13:50:56;;;;;;;3.08;2.03;;;;;;;;;;5138038;27;20602;-67
2023/05/24 13:53:25;;;;;;;3.75;1.95;;;;;;;;;;5138824;27;20194;-67
2023/05/24 13:55:52;;;;;;;3.78;2.05;;;;;;;;;;5138587;27;20203;-67
2023/05/24 13:58:21;;;;;;;3.28;2.22;;;;;;;;;;5138696;27;20202;-67
2023/05/24 14:00:48;;;;;;;3.95;2.05;;;;;;;;;;5137874;27;20230;-67
2023/05/24 14:03:16;;;;;;;3.15;2.20;;;;;;;;;;5138622;27;20194;-67
2023/05/24 14:05:43;;;;;;;4.00;1.88;;;;;;;;;;5138623;27;20213;-67
2023/05/24 14:08:10;;;;;;;3.00;2.08;;;;;;;;;;5137733;27;20209;-66
2023/05/24 14:10:38;;;;;;;2.88;2.03;;;;;;;;;;5138823;27;20198;-66
2023/05/24 14:13:07;;;;;;;3.60;2.15;;;;;;;;;;5137725;27;20202;-68
2023/05/24 14:15:36;;;;;;;3.75;2.00;;;;;;;;;;5137812;27;20574;-68
2023/05/24 14:18:06;;;;;;;3.58;2.20;;;;;;;;;;5137611;27;20251;-68
2023/05/24 14:20:35;;;;;;;3.47;2.10;;;;;;;;;;5137223;27;20232;-68
2023/05/24 14:23:02;;;;;;;5.22;2.17;;;;;;;;;;5137882;27;20243;-68
2023/05/24 14:25:30;;;;;;;3.28;1.90;;;;;;;;;;5137707;27;20210;-68
2023/05/24 14:27:58;;;;;;;3.70;1.92;;;;;;;;;;5136202;27;20245;-68
2023/05/24 14:30:25;;;;;;;3.17;2.15;;;;;;;;;;5138911;27;20199;-68
2023/05/24 14:32:54;;;;;;;2.17;1.63;;;;;;;;;;5137734;27;20495;-68
2023/05/24 14:35:21;;;;;;;2.80;1.88;;;;;;;;;;5137888;27;20205;-68
2023/05/24 14:37:48;;;;;;;3.03;2.00;;;;;;;;;;5136750;27;20514;-68
2023/05/24 14:40:16;;;;;;;4.50;2.20;;;;;;;;;;5136689;27;20233;-68
2023/05/24 14:42:43;;;;;;;2.58;1.83;;;;;;;;;;5137662;27;20594;-68
2023/05/24 14:45:11;;;;;;;3.08;2.00;;;;;;;;;;5137485;27;20644;-68
2023/05/24 14:47:38;;;;;;;2.53;1.70;;;;;;;;;;5136929;27;20601;-68
2023/05/24 14:50:08;;;;;;;2.17;1.70;;;;;;;;;;5137253;27;20190;-68